Observations for STORNOWAY, United Kingdom (EGPO)

EGPO 221220Z 13007KT 9999 -DZ FEW003 SCT008 BKN021 16/15 Q1017  
EGPO 221150Z 13008KT 8000 -RADZ FEW001 SCT003 BKN030 16/15 Q1017
EGPO 221120Z 12008KT 3500 -RADZ FEW003 SCT007 BKN012 16/15 Q1017
EGPO 221050Z 14008KT 9000 -RADZ FEW003 SCT007 BKN012 16/15 Q1017
EGPO 221020Z 13007KT 9999 -RA FEW003 SCT007 BKN010 15/15 Q1017  
EGPO 220950Z 13004KT 6000 RA FEW005 SCT007 BKN011 15/14 Q1017   
EGPO 220920Z 13006KT 6000 RA FEW005 SCT007 BKN011 14/14 Q1017   
EGPO 220850Z 13006KT 6000 RA FEW005 SCT011 BKN020 14/14 Q1017   
EGPO 220820Z 13007KT 6000 RA FEW005 SCT018 BKN028 14/14 Q1017   
EGPO 220750Z 13008KT 8000 RA FEW005 SCT025 BKN048 14/14 Q1017   
EGPO 220720Z 14009KT 9999 RA FEW005 SCT028 BKN040 14/14 Q1017   
EGPO 220650Z 13008KT 9999 RA FEW005 SCT035 BKN049 14/14 Q1017   
EGPO 220620Z 13009KT 9999 -RA FEW005 BKN035 14/14 Q1017 
EGPO 220550Z 13009KT 9999 -RA FEW005 SCT030 14/14 Q1017 
EGPO 220520Z 13008KT 9999 -RA FEW006 BKN030 14/14 Q1017 
EGPO 220450Z AUTO 13008KT 9999 -RA FEW049/// 14/14 Q1017
EGPO 220420Z AUTO 12005KT 9999 -RA SCT048/// 14/14 Q1017
EGPO 220350Z AUTO 12004KT 9999 -RA NCD 14/14 Q1017  
EGPO 220320Z AUTO 12008KT 9999 NCD 15/14 Q1017  
EGPO 220250Z AUTO 12007KT 9999 NCD 14/14 Q1018  
EGPO 220220Z AUTO 13007KT 9999 NCD 14/14 Q1018  
EGPO 220150Z AUTO 12007KT 9999 NCD 14/14 Q1018  
EGPO 220120Z AUTO 12007KT 9999 NCD 14/14 Q1018  
EGPO 220050Z AUTO 11007KT 9999 NCD 14/14 Q1018  
EGPO 220020Z AUTO 11007KT 9999 NCD 14/14 Q1018  
EGPO 212350Z AUTO 11006KT 9999 NCD 14/14 Q1018  
EGPO 212320Z AUTO 11005KT 9999 NCD 14/14 Q1018  
EGPO 212250Z AUTO 11009KT 9999 FEW047/// 14/14 Q1018
EGPO 212220Z AUTO 11007KT 9999 FEW046/// 15/14 Q1018
EGPO 212150Z AUTO 11007KT 9999 NCD 14/14 Q1018  
EGPO 212120Z AUTO 11008KT 9999 NCD 15/14 Q1019  
EGPO 212050Z AUTO 11006KT 9999 NCD 15/14 Q1019  
EGPO 212020Z AUTO 09005KT 9999 NCD 15/14 Q1019  
EGPO 211950Z AUTO 09006KT 9999 NCD 15/14 Q1018  
EGPO 211920Z AUTO 08005KT 9999 FEW041/// 15/15 Q1018
EGPO 211850Z AUTO 05004KT 9999 OVC041/// 15/15 Q1018
EGPO 211820Z 03005KT 9999 BKN034 15/15 Q1019
EGPO 211750Z 05005KT 9999 BKN033 15/15 Q1019
EGPO 211720Z 05005KT 9999 BKN034 15/15 Q1019
EGPO 211650Z 05006KT 9999 BKN035 16/15 Q1019
EGPO 211620Z 05006KT 9999 BKN036 16/15 Q1019
EGPO 211550Z 05006KT 9999 BKN035 16/14 Q1019
EGPO 211520Z 05007KT 9999 FEW026 BKN036 16/14 Q1019 
EGPO 211450Z 05006KT 9999 FEW024 BKN035 15/14 Q1019 
EGPO 211420Z 05006KT 9999 BKN036 16/14 Q1019
EGPO 211350Z 05008KT 9999 BKN039 16/14 Q1019
EGPO 211320Z 05007KT 9999 BKN041 16/14 Q1020
EGPO 211250Z 09005KT 9999 BKN039 16/13 Q1020
EGPO 211220Z 11005KT 9999 FEW014 BKN039 17/12 Q1020 
EGPO 211150Z 14005KT 9999 FEW014 SCT040 17/12 Q1020